^^
Meteo Knjazevac Station Historical Data
Daily Summary for January 13, 2021 Units:  English    Metric   Both
Daily Weekly Monthly Yearly Custom
  High: Low: Average:
Temperature: 86.9 °F 47.5 °F 66.7 °F
Dew Point: 58.2 °F 43.5 °F 50.3 °F
Humidity: 88% 34% 59%
Wind Speed: 9mph 0mph 1.6mph
Wind Gust: 15mph - -
Wind- - WSW
Pressure: 30.09 in 30.00 in -
Precipitation: 0.00 in    
Historical Graphs
 
 
Tabular Data for January 13, 2021
Time Temperature Dew Point Pressure Wind Wind Speed Wind Gust Humidity Rainfall Rate (Hourly) solar Conditions
00:00 56.7 °F 46.6 °F 30.05 in Calm   3 mph 69% 0.00 in 0 W/m2
00:10 56.4 °F 46.7 °F 30.05 in Calm   2 mph 70% 0.00 in 0 W/m2
00:20 55.8 °F 46.1 °F 30.05 in Calm   1 mph 70% 0.00 in 0 W/m2
00:30 55.2 °F 46.3 °F 30.05 in Calm   2 mph 72% 0.00 in 0 W/m2
00:40 54.9 °F 46 °F 30.05 in Calm   1 mph 72% 0.00 in 0 W/m2
00:50 54.3 °F 45.8 °F 30.05 in Calm   2 mph 73% 0.00 in 0 W/m2
01:00 54 °F 45.5 °F 30.05 in Calm   2 mph 73% 0.00 in 0 W/m2
01:10 53.6 °F 45.5 °F 30.05 in Calm   2 mph 74% 0.00 in 0 W/m2
01:20 53.1 °F 45 °F 30.05 in West 1 mph 2 mph 74% 0.00 in 0 W/m2
01:30 52.7 °F 45 °F 30.05 in NW 1 mph 3 mph 75% 0.00 in 0 W/m2
01:40 52.7 °F 45.7 °F 30.05 in WNW 1 mph 4 mph 77% 0.00 in 0 W/m2
01:50 52.5 °F 45.5 °F 30.05 in WNW 1 mph 2 mph 77% 0.00 in 0 W/m2
02:00 52.2 °F 45.2 °F 30.05 in West 1 mph 2 mph 77% 0.00 in 0 W/m2
02:10 51.8 °F 45.2 °F 30.05 in WNW 1 mph 2 mph 78% 0.00 in 0 W/m2
02:20 51.4 °F 44.8 °F 30.05 in Calm   2 mph 78% 0.00 in 0 W/m2
02:30 51.3 °F 44.6 °F 30.05 in Calm   2 mph 78% 0.00 in 0 W/m2
02:40 51.1 °F 44.8 °F 30.05 in Calm   2 mph 79% 0.00 in 0 W/m2
02:50 50.9 °F 44.9 °F 30.05 in NW 1 mph 3 mph 80% 0.00 in 0 W/m2
03:00 50.7 °F 44.4 °F 30.05 in Calm   2 mph 79% 0.00 in 0 W/m2
03:10 50.5 °F 44.3 °F 30.05 in Calm   2 mph 79% 0.00 in 0 W/m2
03:20 50.4 °F 44.4 °F 30.05 in Calm   2 mph 80% 0.00 in 0 W/m2
03:30 50.2 °F 44.2 °F 30.06 in West 1 mph 2 mph 80% 0.00 in 0 W/m2
03:40 49.8 °F 43.9 °F 30.06 in WNW 1 mph 2 mph 80% 0.00 in 0 W/m2
03:50 49.6 °F 44 °F 30.06 in WNW 1 mph 2 mph 81% 0.00 in 0 W/m2
04:00 49.5 °F 43.9 °F 30.06 in NNW 1 mph 2 mph 81% 0.00 in 0 W/m2
04:10 49.5 °F 43.9 °F 30.06 in Calm   3 mph 81% 0.00 in 0 W/m2
04:20 49.1 °F 44.2 °F 30.06 in WSW 1 mph 4 mph 83% 0.00 in 0 W/m2
04:30 48.9 °F 44 °F 30.06 in Calm   2 mph 83% 0.00 in 0 W/m2
04:40 48.7 °F 44.1 °F 30.06 in West 2 mph 3 mph 84% 0.00 in 0 W/m2
04:50 48.7 °F 44.1 °F 30.06 in WNW 1 mph 3 mph 84% 0.00 in 0 W/m2
05:00 48.7 °F 44.1 °F 30.06 in WNW 1 mph 4 mph 84% 0.00 in 0 W/m2
05:10 48.6 °F 43.9 °F 30.06 in West 1 mph 3 mph 84% 0.00 in 0 W/m2
05:20 48.4 °F 43.8 °F 30.06 in WSW 1 mph 3 mph 84% 0.00 in 0 W/m2
05:30 48.2 °F 43.9 °F 30.06 in West 2 mph 3 mph 85% 0.00 in 0 W/m2
05:40 48.2 °F 43.9 °F 30.07 in West 1 mph 3 mph 85% 0.00 in 0 W/m2
05:50 48.4 °F 44.1 °F 30.07 in Calm   2 mph 85% 0.00 in 0 W/m2
06:00 48.2 °F 43.9 °F 30.07 in NNW 1 mph 2 mph 85% 0.00 in 0 W/m2
06:10 48 °F 43.7 °F 30.07 in WNW 1 mph 2 mph 85% 0.00 in 3 W/m2
06:20 47.8 °F 43.6 °F 30.07 in Calm   2 mph 85% 0.00 in 11 W/m2
06:30 47.8 °F 43.5 °F 30.07 in WNW 1 mph 3 mph 85% 0.00 in 21 W/m2
06:40 47.8 °F 43.5 °F 30.07 in WNW 1 mph 3 mph 85% 0.00 in 31 W/m2
06:50 47.5 °F 43.5 °F 30.07 in WSW 2 mph 3 mph 86% 0.00 in 41 W/m2
07:00 47.5 °F 44.1 °F 30.08 in WNW 2 mph 4 mph 88% 0.00 in 71 W/m2
07:10 47.8 °F 44.5 °F 30.08 in Calm   3 mph 88% 0.00 in 98 W/m2
07:20 48.2 °F 44.8 °F 30.08 in West 2 mph 3 mph 88% 0.00 in 125 W/m2
07:30 48.7 °F 45.3 °F 30.08 in WNW 1 mph 3 mph 88% 0.00 in 154 W/m2
07:40 49.5 °F 46.1 °F 30.08 in WNW 1 mph 3 mph 88% 0.00 in 183 W/m2
07:50 50.2 °F 46.8 °F 30.08 in WNW 1 mph 2 mph 88% 0.00 in 214 W/m2
08:00 51.1 °F 47 °F 30.08 in NW 1 mph 2 mph 86% 0.00 in 243 W/m2
08:10 52.2 °F 48.1 °F 30.08 in WNW 1 mph 3 mph 86% 0.00 in 278 W/m2
08:20 53.4 °F 49 °F 30.08 in WSW 1 mph 2 mph 85% 0.00 in 313 W/m2
08:30 55.1 °F 50.3 °F 30.08 in WSW 1 mph 2 mph 84% 0.00 in 344 W/m2
08:40 57.4 °F 50.9 °F 30.08 in West 1 mph 2 mph 79% 0.00 in 376 W/m2
08:50 60.1 °F 51.8 °F 30.08 in SW 1 mph 2 mph 74% 0.00 in 319 W/m2
09:00 62.2 °F 53.1 °F 30.08 in WSW 1 mph 2 mph 72% 0.00 in 143 W/m2
09:10 64.2 °F 53.4 °F 30.08 in Calm   2 mph 68% 0.00 in 370 W/m2
09:20 66.2 °F 54.1 °F 30.08 in Calm   2 mph 65% 0.00 in 510 W/m2
09:30 68 °F 55.4 °F 30.08 in WNW 1 mph 2 mph 64% 0.00 in 542 W/m2
09:40 69.8 °F 56.2 °F 30.08 in SW 1 mph 3 mph 62% 0.00 in 566 W/m2
09:50 71.2 °F 55.2 °F 30.08 in North 1 mph 2 mph 57% 0.00 in 590 W/m2
10:00 72.5 °F 55.4 °F 30.08 in Calm   3 mph 55% 0.00 in 612 W/m2
10:10 73.8 °F 55.6 °F 30.08 in Calm   4 mph 53% 0.00 in 633 W/m2
10:20 74.9 °F 56 °F 30.08 in SSE 1 mph 4 mph 52% 0.00 in 653 W/m2
10:30 75.9 °F 57 °F 30.07 in WNW 1 mph 3 mph 52% 0.00 in 671 W/m2
10:40 77 °F 55.8 °F 30.07 in ESE 1 mph 5 mph 48% 0.00 in 161 W/m2
10:50 78.1 °F 56.8 °F 30.07 in West 1 mph 3 mph 48% 0.00 in 704 W/m2
11:00 79 °F 57 °F 30.07 in WNW 2 mph 4 mph 47% 0.00 in 718 W/m2
11:10 79.9 °F 57.8 °F 30.06 in ENE 2 mph 5 mph 47% 0.00 in 731 W/m2
11:20 80.8 °F 57.5 °F 30.06 in NNE 2 mph 9 mph 45% 0.00 in 742 W/m2
11:30 81.5 °F 57.5 °F 30.06 in East 3 mph 6 mph 44% 0.00 in 396 W/m2
11:40 81.7 °F 57 °F 30.06 in ESE 3 mph 10 mph 43% 0.00 in 230 W/m2
11:50 82.1 °F 58 °F 30.06 in ESE 2 mph 10 mph 44% 0.00 in 698 W/m2
12:00 82.9 °F 58.1 °F 30.05 in SSE 3 mph 8 mph 43% 0.00 in 771 W/m2
12:10 83.1 °F 57.6 °F 30.05 in SSE 3 mph 8 mph 42% 0.00 in 774 W/m2
12:20 83.5 °F 56.6 °F 30.05 in SSE 2 mph 8 mph 40% 0.00 in 776 W/m2
12:30 83.8 °F 56.9 °F 30.04 in SSW 2 mph 7 mph 40% 0.00 in 776 W/m2
12:40 83.9 °F 57 °F 30.04 in SSW 1 mph 8 mph 40% 0.00 in 774 W/m2
12:50 84.8 °F 57.8 °F 30.04 in ENE 2 mph 7 mph 40% 0.00 in 771 W/m2
13:00 85.3 °F 58.2 °F 30.04 in SE 2 mph 7 mph 40% 0.00 in 766 W/m2
13:10 86 °F 58.2 °F 30.04 in NNE 2 mph 7 mph 39% 0.00 in 759 W/m2
13:20 86.5 °F 57.9 °F 30.03 in ENE 2 mph 10 mph 38% 0.00 in 751 W/m2
13:30 86.9 °F 58.2 °F 30.03 in East 5 mph 10 mph 38% 0.00 in 227 W/m2
13:40 86 °F 57.4 °F 30.03 in SE 5 mph 7 mph 38% 0.00 in 730 W/m2
13:50 86.4 °F 57.8 °F 30.02 in West 3 mph 5 mph 38% 0.00 in 718 W/m2
14:00 86.7 °F 58.1 °F 30.02 in SW 2 mph 8 mph 38% 0.00 in 703 W/m2
14:10 86.5 °F 57.2 °F 30.02 in SSW 1 mph 7 mph 37% 0.00 in 687 W/m2
14:20 86.9 °F 58.2 °F 30.02 in SW 5 mph 8 mph 38% 0.00 in 670 W/m2
14:30 86.9 °F 57.5 °F 30.02 in SW 6 mph 9 mph 37% 0.00 in 248 W/m2
14:40 86 °F 56.7 °F 30.01 in West 1 mph 8 mph 37% 0.00 in 632 W/m2
14:50 86 °F 56.7 °F 30.01 in NNW 1 mph 4 mph 37% 0.00 in 287 W/m2
15:00 86.4 °F 57 °F 30.01 in NNE 3 mph 7 mph 37% 0.00 in 588 W/m2
15:10 86.2 °F 56.9 °F 30.01 in NNE 1 mph 6 mph 37% 0.00 in 163 W/m2
15:20 85.8 °F 57.2 °F 30.01 in NNE 3 mph 5 mph 38% 0.00 in 156 W/m2
15:30 85.3 °F 56.8 °F 30.01 in NNE 1 mph 6 mph 38% 0.00 in 199 W/m2
15:40 85.1 °F 56.7 °F 30.01 in NE 1 mph 7 mph 38% 0.00 in 437 W/m2
15:50 85.3 °F 56.1 °F 30.01 in NE 2 mph 6 mph 37% 0.00 in 147 W/m2
16:00 84.9 °F 56.4 °F 30.00 in North 3 mph 7 mph 38% 0.00 in 151 W/m2
16:10 84.6 °F 56.2 °F 30.00 in West 5 mph 9 mph 38% 0.00 in 375 W/m2
16:20 84.7 °F 55.6 °F 30.00 in West 5 mph 8 mph 37% 0.00 in 375 W/m2
16:30 84.9 °F 55.7 °F 30.00 in WSW 3 mph 9 mph 37% 0.00 in 329 W/m2
16:40 84.9 °F 54.2 °F 30.00 in WSW 6 mph 12 mph 35% 0.00 in 306 W/m2
16:50 84.7 °F 54.1 °F 30.00 in West 5 mph 12 mph 35% 0.00 in 276 W/m2
17:00 84.5 °F 53.1 °F 30.00 in WNW 7 mph 12 mph 34% 0.00 in 242 W/m2
17:10 84 °F 52.6 °F 30.00 in West 9 mph 14 mph 34% 0.00 in 208 W/m2
17:20 83.8 °F 53.2 °F 30.01 in West 7 mph 15 mph 35% 0.00 in 177 W/m2
17:30 83.3 °F 52 °F 30.01 in West 6 mph 12 mph 34% 0.00 in 151 W/m2
17:40 82.8 °F 52.3 °F 30.01 in West 6 mph 12 mph 35% 0.00 in 120 W/m2
17:50 82.2 °F 51.1 °F 30.01 in West 6 mph 10 mph 34% 0.00 in 92 W/m2
18:00 81.7 °F 51.4 °F 30.01 in WNW 5 mph 10 mph 35% 0.00 in 69 W/m2
18:10 81.1 °F 50.9 °F 30.02 in WNW 6 mph 12 mph 35% 0.00 in 50 W/m2
18:20 80.6 °F 51.9 °F 30.02 in WNW 5 mph 10 mph 37% 0.00 in 33 W/m2
18:30 79.8 °F 51.2 °F 30.02 in WNW 1 mph 7 mph 37% 0.00 in 18 W/m2
18:40 79 °F 51.2 °F 30.02 in NNW 2 mph 5 mph 38% 0.00 in 9 W/m2
18:50 78.2 °F 50.5 °F 30.02 in NNW 2 mph 6 mph 38% 0.00 in 0 W/m2
19:00 77.2 °F 50.3 °F 30.02 in NNW 2 mph 5 mph 39% 0.00 in 0 W/m2
19:10 76.4 °F 49.6 °F 30.03 in NNW 2 mph 5 mph 39% 0.00 in 0 W/m2
19:20 75.5 °F 49.5 °F 30.04 in NNW 1 mph 4 mph 40% 0.00 in 0 W/m2
19:30 74.4 °F 50.5 °F 30.04 in Calm   3 mph 43% 0.00 in 0 W/m2
19:40 73.2 °F 49.9 °F 30.04 in Calm   2 mph 44% 0.00 in 0 W/m2
19:50 72.1 °F 49.6 °F 30.05 in SSW 1 mph 2 mph 45% 0.00 in 0 W/m2
20:00 71.1 °F 50.4 °F 30.05 in South 1 mph 3 mph 48% 0.00 in 0 W/m2
20:10 70.2 °F 50.1 °F 30.06 in West 1 mph 2 mph 49% 0.00 in 0 W/m2
20:20 69.4 °F 51 °F 30.06 in SW 1 mph 2 mph 52% 0.00 in 0 W/m2
20:30 68.5 °F 50.2 °F 30.06 in SW 1 mph 3 mph 52% 0.00 in 0 W/m2
20:40 67.8 °F 50.5 °F 30.06 in West 2 mph 3 mph 54% 0.00 in 0 W/m2
20:50 66.7 °F 49.5 °F 30.07 in WSW 3 mph 5 mph 54% 0.00 in 0 W/m2
21:00 66 °F 48.8 °F 30.07 in WNW 2 mph 5 mph 54% 0.00 in 0 W/m2
21:10 65.1 °F 48.5 °F 30.07 in West 2 mph 5 mph 55% 0.00 in 0 W/m2
21:20 64.6 °F 48.5 °F 30.07 in West 2 mph 5 mph 56% 0.00 in 0 W/m2
21:30 64 °F 48.5 °F 30.07 in West 2 mph 5 mph 57% 0.00 in 0 W/m2
21:40 63.4 °F 48.4 °F 30.08 in Calm   3 mph 58% 0.00 in 0 W/m2
21:50 62.8 °F 47.8 °F 30.08 in WSW 2 mph 3 mph 58% 0.00 in 0 W/m2
22:00 62.4 °F 47.9 °F 30.08 in NW 1 mph 3 mph 59% 0.00 in 0 W/m2
22:10 62.2 °F 47.7 °F 30.08 in Calm   2 mph 59% 0.00 in 0 W/m2
22:20 61.9 °F 47.4 °F 30.08 in Calm   2 mph 59% 0.00 in 0 W/m2
22:30 61.5 °F 48.4 °F 30.08 in Calm   2 mph 62% 0.00 in 0 W/m2
22:40 60.9 °F 47.8 °F 30.08 in Calm   2 mph 62% 0.00 in 0 W/m2
22:50 60.3 °F 47.6 °F 30.08 in Calm   2 mph 63% 0.00 in 0 W/m2
23:00 59.7 °F 47.5 °F 30.08 in Calm   1 mph 64% 0.00 in 0 W/m2
23:10 59.2 °F 47 °F 30.09 in Calm   1 mph 64% 0.00 in 0 W/m2
23:20 58.8 °F 47 °F 30.09 in NNW 1 mph 2 mph 65% 0.00 in 0 W/m2
23:30 58.3 °F 46.6 °F 30.09 in Calm   1 mph 65% 0.00 in 0 W/m2
23:40 57.7 °F 46.8 °F 30.09 in Calm   2 mph 67% 0.00 in 0 W/m2
23:50 57 °F 46.6 °F 30.09 in Calm   1 mph 68% 0.00 in 0 W/m2
Knjazevac, Serbia
Compliments of Weather Underground - 2 mb